createdAt,value
2023-02-25T00:00:45.105Z,21.25
2023-02-25T00:03:12.674Z,21.10
2023-02-25T00:05:43.045Z,19.25
2023-02-25T00:08:10.468Z,19.73
2023-02-25T00:10:37.603Z,20.65
2023-02-25T00:13:17.376Z,23.48
2023-02-25T00:15:45.327Z,22.27
2023-02-25T00:18:12.434Z,23.40
2023-02-25T00:20:41.336Z,22.40
2023-02-25T00:23:08.542Z,22.67
2023-02-25T00:25:35.865Z,23.77
2023-02-25T00:28:06.273Z,23.83
2023-02-25T00:30:34.235Z,25.42
2023-02-25T00:33:01.818Z,24.30
2023-02-25T00:35:29.088Z,24.38
2023-02-25T00:38:04.021Z,24.80
2023-02-25T00:40:40.594Z,23.90
2023-02-25T00:43:08.011Z,24.65
2023-02-25T00:45:35.640Z,23.52
2023-02-25T00:48:02.846Z,24.73
2023-02-25T00:50:29.929Z,21.63
2023-02-25T00:52:57.250Z,24.08
2023-02-25T00:55:24.397Z,24.80
2023-02-25T00:57:51.547Z,27.08
2023-02-25T01:00:18.903Z,26.40
2023-02-25T01:02:46.299Z,24.95
2023-02-25T01:05:14.437Z,23.70
2023-02-25T01:07:42.081Z,24.23
2023-02-25T01:10:10.801Z,22.65
2023-02-25T01:12:39.418Z,25.20
2023-02-25T01:15:07.225Z,22.92
2023-02-25T01:17:34.342Z,22.85
2023-02-25T01:20:01.452Z,22.92
2023-02-25T01:22:28.570Z,23.58
2023-02-25T01:24:56.297Z,24.13
2023-02-25T01:27:23.422Z,19.90
2023-02-25T01:29:50.596Z,19.42
2023-02-25T01:32:17.890Z,18.33
2023-02-25T01:34:45.117Z,20.50
2023-02-25T01:37:12.280Z,20.02
2023-02-25T01:39:40.395Z,22.17
2023-02-25T01:42:12.863Z,17.00
2023-02-25T01:45:00.360Z,16.83
2023-02-25T01:47:30.149Z,16.58
2023-02-25T01:49:57.358Z,15.35
2023-02-25T01:52:25.531Z,11.40
2023-02-25T01:54:54.478Z,10.20
2023-02-25T01:57:21.817Z,12.43
2023-02-25T01:59:50.146Z,13.00
2023-02-25T02:02:19.447Z,12.50
2023-02-25T02:04:50.274Z,13.80
2023-02-25T02:07:18.821Z,14.60
2023-02-25T02:10:06.270Z,15.25
2023-02-25T02:12:35.422Z,14.13
2023-02-25T02:15:04.391Z,14.50
2023-02-25T02:17:54.852Z,13.93
2023-02-25T02:20:30.996Z,10.63
2023-02-25T02:23:06.668Z,12.95
2023-02-25T02:25:44.238Z,11.98
2023-02-25T02:28:19.590Z,11.15
2023-02-25T02:30:54.967Z,12.57
2023-02-25T02:33:30.388Z,11.90
2023-02-25T02:36:11.725Z,13.10
2023-02-25T02:38:38.892Z,11.32
2023-02-25T02:41:35.596Z,12.82
2023-02-25T02:44:02.727Z,14.07
2023-02-25T02:46:53.295Z,14.88
2023-02-25T02:49:29.964Z,19.50
2023-02-25T02:51:59.050Z,15.30
2023-02-25T02:54:30.422Z,15.30
2023-02-25T02:56:59.624Z,15.65
2023-02-25T02:59:30.827Z,15.15
2023-02-25T03:02:06.595Z,15.35
2023-02-25T03:04:36.490Z,16.15
2023-02-25T03:07:05.812Z,15.05
2023-02-25T03:09:41.676Z,15.10
2023-02-25T03:12:09.095Z,14.20
2023-02-25T03:14:41.279Z,15.40
2023-02-25T03:17:10.842Z,13.55
2023-02-25T03:19:40.523Z,14.20
2023-02-25T03:22:11.234Z,12.67
2023-02-25T03:24:44.716Z,13.07
2023-02-25T03:27:25.861Z,11.85
2023-02-25T03:29:53.899Z,12.48
2023-02-25T03:32:21.511Z,12.23
2023-02-25T03:34:51.232Z,14.43
2023-02-25T03:40:34.209Z,13.02
2023-02-25T03:43:08.296Z,13.05
2023-02-25T03:45:40.704Z,14.82
2023-02-25T03:48:08.675Z,13.38
2023-02-25T03:50:38.396Z,15.15
2023-02-25T03:53:08.240Z,13.27
2023-02-25T03:55:35.735Z,14.50
2023-02-25T03:58:04.281Z,15.07
2023-02-25T04:00:33.114Z,16.38
2023-02-25T04:03:00.593Z,16.35
2023-02-25T04:05:28.690Z,14.48
2023-02-25T04:07:57.994Z,14.68
2023-02-25T04:10:25.494Z,14.65
2023-02-25T04:12:52.938Z,14.52
2023-02-25T04:15:20.953Z,14.57
2023-02-25T04:17:48.789Z,13.05
2023-02-25T04:20:17.141Z,14.43
2023-02-25T04:22:44.618Z,13.02
2023-02-25T04:25:12.229Z,15.63
2023-02-25T04:27:40.204Z,13.68
2023-02-25T04:30:08.030Z,14.48
2023-02-25T04:32:35.176Z,16.83
2023-02-25T04:35:03.493Z,14.18
2023-02-25T04:37:31.199Z,14.68
2023-02-25T04:39:58.360Z,16.00
2023-02-25T04:42:25.571Z,15.70
2023-02-25T04:44:52.717Z,15.27
2023-02-25T04:47:20.111Z,15.50
2023-02-25T04:49:47.241Z,14.73
2023-02-25T04:52:15.011Z,15.07
2023-02-25T04:54:42.314Z,15.05
2023-02-25T04:57:36.811Z,12.25
2023-02-25T05:00:15.272Z,13.02
2023-02-25T05:02:43.388Z,14.50
2023-02-25T05:05:11.226Z,15.25
2023-02-25T05:07:39.041Z,15.25
2023-02-25T05:10:07.705Z,15.32
2023-02-25T05:12:34.953Z,15.35
2023-02-25T05:15:05.684Z,14.68
2023-02-25T05:17:33.461Z,15.23
2023-02-25T05:20:03.386Z,15.35
2023-02-25T05:22:30.909Z,14.10
2023-02-25T05:24:58.232Z,15.82
2023-02-25T05:27:25.365Z,13.15
2023-02-25T05:29:53.007Z,13.13
2023-02-25T05:32:20.343Z,10.77
2023-02-25T05:34:47.545Z,11.30
2023-02-25T05:37:14.910Z,12.27
2023-02-25T05:39:46.354Z,12.80
2023-02-25T05:42:15.922Z,12.80
2023-02-25T05:44:43.006Z,12.88
2023-02-25T05:47:10.461Z,12.75
2023-02-25T05:49:37.772Z,12.35
2023-02-25T05:52:05.247Z,12.43
2023-02-25T05:54:32.492Z,13.27
2023-02-25T05:56:59.605Z,12.98
2023-02-25T05:59:28.230Z,11.38
2023-02-25T06:01:55.476Z,12.65
2023-02-25T06:04:22.600Z,13.02
2023-02-25T06:06:50.453Z,12.05
2023-02-25T06:09:24.379Z,11.15
2023-02-25T06:11:51.497Z,11.43
2023-02-25T06:14:18.861Z,11.50
2023-02-25T06:16:46.039Z,11.02
2023-02-25T06:19:14.222Z,12.05
2023-02-25T06:21:41.506Z,11.23
2023-02-25T06:24:08.977Z,12.52
2023-02-25T06:26:41.875Z,10.68
2023-02-25T06:29:10.055Z,9.90
2023-02-25T06:31:39.290Z,10.75
2023-02-25T06:34:06.718Z,11.05
2023-02-25T06:36:33.980Z,10.27
2023-02-25T06:39:01.643Z,10.98
2023-02-25T06:41:31.127Z,11.55
2023-02-25T06:43:58.365Z,10.75
2023-02-25T06:46:26.651Z,10.75
2023-02-25T06:48:54.698Z,9.82
2023-02-25T06:51:22.866Z,11.27
2023-02-25T06:53:51.095Z,11.02
2023-02-25T06:56:20.737Z,11.07
2023-02-25T06:58:48.217Z,11.57
2023-02-25T07:01:19.309Z,11.68
2023-02-25T07:03:46.511Z,11.80
2023-02-25T07:06:15.896Z,11.93
2023-02-25T07:08:43.396Z,11.85
2023-02-25T07:11:19.755Z,11.00
2023-02-25T07:13:47.525Z,12.88
2023-02-25T07:16:15.413Z,12.15
2023-02-25T07:18:42.756Z,11.07
2023-02-25T07:21:12.375Z,10.95
2023-02-25T07:23:39.562Z,10.52
2023-02-25T07:26:08.592Z,9.15
2023-02-25T07:28:36.041Z,11.18
2023-02-25T07:31:03.886Z,10.50
2023-02-25T07:33:31.488Z,10.27
2023-02-25T07:35:59.263Z,8.93
2023-02-25T07:38:26.706Z,8.65
2023-02-25T07:40:54.049Z,8.95
2023-02-25T07:43:21.234Z,8.05
2023-02-25T07:45:50.048Z,6.80
2023-02-25T07:48:17.136Z,7.00
2023-02-25T07:50:44.812Z,6.93
2023-02-25T07:53:12.144Z,6.75
2023-02-25T07:55:39.344Z,6.68
2023-02-25T07:58:07.559Z,6.88
2023-02-25T08:00:35.628Z,5.93
2023-02-25T08:03:02.729Z,6.25
2023-02-25T08:05:29.893Z,6.00
2023-02-25T08:07:57.093Z,5.90
2023-02-25T08:10:24.173Z,5.28
2023-02-25T08:12:52.900Z,7.13
2023-02-25T08:15:20.141Z,7.22
2023-02-25T08:17:51.095Z,7.75
2023-02-25T08:20:19.901Z,7.15
2023-02-25T08:22:47.123Z,5.00
2023-02-25T08:25:14.269Z,5.30
2023-02-25T08:27:41.485Z,4.68
2023-02-25T08:30:12.218Z,4.90
2023-02-25T08:32:40.720Z,5.15
2023-02-25T08:35:10.862Z,5.18
2023-02-25T08:37:38.013Z,5.00
2023-02-25T08:40:09.993Z,4.53
2023-02-25T08:42:37.677Z,4.65
2023-02-25T08:45:08.124Z,5.70
2023-02-25T08:47:35.513Z,4.93
2023-02-25T08:50:02.745Z,4.38
2023-02-25T08:52:33.750Z,6.82
2023-02-25T08:55:04.513Z,5.10
2023-02-25T08:57:32.557Z,5.20
2023-02-25T08:59:59.892Z,5.47
2023-02-25T09:02:27.099Z,5.60
2023-02-25T09:04:54.392Z,2.95
2023-02-25T09:07:22.246Z,3.20
2023-02-25T09:09:49.439Z,5.15
2023-02-25T09:12:18.630Z,6.90
2023-02-25T09:14:45.797Z,6.65
2023-02-25T09:17:12.962Z,4.18
2023-02-25T09:19:40.086Z,7.45
2023-02-25T09:22:07.880Z,4.00
2023-02-25T09:24:35.267Z,3.60
2023-02-25T09:27:08.059Z,3.50
2023-02-25T09:29:36.155Z,3.58
2023-02-25T09:32:04.226Z,3.40
2023-02-25T09:34:33.957Z,3.25
2023-02-25T09:37:02.074Z,3.53
2023-02-25T09:39:29.159Z,3.13
2023-02-25T09:42:09.973Z,4.63
2023-02-25T09:44:40.044Z,4.35
2023-02-25T09:47:07.265Z,4.25
2023-02-25T09:49:40.490Z,4.43
2023-02-25T09:52:13.890Z,4.13
2023-02-25T09:54:45.124Z,4.50
2023-02-25T10:03:50.853Z,3.30
2023-02-25T10:06:30.245Z,4.13
2023-02-25T10:09:16.097Z,2.85
2023-02-25T10:25:24.857Z,2.42
2023-02-25T10:27:57.129Z,2.70
2023-02-25T10:30:26.459Z,2.35
2023-02-25T10:32:55.771Z,2.50
2023-02-25T10:35:28.595Z,2.42
2023-02-25T10:37:55.850Z,2.38
2023-02-25T10:40:25.762Z,2.60
2023-02-25T10:42:55.087Z,3.08
2023-02-25T10:45:26.466Z,2.40
2023-02-25T10:48:01.968Z,2.65
2023-02-25T10:50:44.564Z,3.22
2023-02-25T10:53:16.603Z,2.72
2023-02-25T10:55:52.240Z,3.88
2023-02-25T10:58:28.373Z,3.00
2023-02-25T11:01:02.202Z,2.65
2023-02-25T11:03:31.191Z,2.47
2023-02-25T11:06:36.073Z,2.55
2023-02-25T11:09:05.048Z,3.00
2023-02-25T11:11:34.278Z,3.05
2023-02-25T11:14:14.614Z,2.50
2023-02-25T11:16:43.559Z,2.95
2023-02-25T11:19:15.047Z,2.45
2023-02-25T11:21:48.304Z,2.70
2023-02-25T11:24:18.374Z,2.80
2023-02-25T11:26:47.049Z,2.90
2023-02-25T11:29:20.463Z,3.67
2023-02-25T11:32:10.202Z,2.88
2023-02-25T11:34:40.310Z,3.30
2023-02-25T11:37:26.375Z,2.50
2023-02-25T11:39:55.326Z,2.55
2023-02-25T11:42:24.499Z,2.80
2023-02-25T11:44:59.016Z,3.28
2023-02-25T11:47:29.996Z,3.60
2023-02-25T11:50:20.969Z,2.95
2023-02-25T11:52:53.857Z,3.97
2023-02-25T11:55:26.461Z,4.93
2023-02-25T11:57:59.611Z,4.40
2023-02-25T12:00:29.524Z,3.78
2023-02-25T12:03:05.634Z,3.17
2023-02-25T12:05:41.288Z,3.10
2023-02-25T12:08:15.415Z,3.65
2023-02-25T12:10:58.389Z,2.30
2023-02-25T12:13:44.795Z,3.03
2023-02-25T12:16:24.888Z,2.80
2023-02-25T12:19:05.590Z,3.15
2023-02-25T12:21:41.557Z,3.42
2023-02-25T12:24:20.683Z,4.97
2023-02-25T12:27:00.446Z,4.80
2023-02-25T12:29:32.121Z,3.80
2023-02-25T12:32:04.523Z,4.00
2023-02-25T12:34:45.057Z,2.60
2023-02-25T12:37:15.145Z,3.97
2023-02-25T12:39:50.635Z,5.78
2023-02-25T12:42:36.685Z,4.32
2023-02-25T12:45:18.843Z,3.17
2023-02-25T12:47:49.724Z,2.60
2023-02-25T12:50:35.696Z,2.28
2023-02-25T12:53:21.589Z,1.48
2023-02-25T12:55:52.967Z,1.50
2023-02-25T12:58:35.393Z,2.03
2023-02-25T13:01:10.790Z,1.73
2023-02-25T13:03:54.623Z,1.20
2023-02-25T13:06:46.196Z,2.20
2023-02-25T13:09:32.001Z,1.73
2023-02-25T13:12:17.680Z,1.55
2023-02-25T13:15:03.653Z,2.20
2023-02-25T13:17:43.481Z,1.27
2023-02-25T13:20:13.327Z,1.75
2023-02-25T13:22:51.800Z,1.83
2023-02-25T13:25:37.045Z,2.28
2023-02-25T13:28:22.764Z,1.58
2023-02-25T13:30:57.227Z,1.58
2023-02-25T13:33:30.870Z,1.08
2023-02-25T13:36:01.205Z,2.28
2023-02-25T13:38:29.192Z,4.90
2023-02-25T13:40:56.411Z,3.00
2023-02-25T13:43:42.630Z,2.28
2023-02-25T13:46:13.014Z,2.55
2023-02-25T13:48:57.233Z,2.45
2023-02-25T13:51:42.331Z,1.55
2023-02-25T13:54:28.613Z,1.95
2023-02-25T13:57:11.120Z,2.35
2023-02-25T13:59:44.487Z,2.92
2023-02-25T14:02:31.955Z,2.10
2023-02-25T14:05:24.103Z,1.35
2023-02-25T14:07:55.865Z,1.70
2023-02-25T14:10:30.533Z,2.00
2023-02-25T14:13:10.124Z,2.00
2023-02-25T14:15:48.435Z,1.95
2023-02-25T14:18:15.663Z,1.63
2023-02-25T14:20:51.885Z,2.50
2023-02-25T14:23:37.563Z,2.85
2023-02-25T14:26:04.759Z,2.83
2023-02-25T14:28:40.149Z,3.08
2023-02-25T14:31:14.585Z,2.60
2023-02-25T14:34:01.784Z,3.63
2023-02-25T14:36:43.829Z,3.22
2023-02-25T14:39:29.389Z,2.92
2023-02-25T14:42:15.288Z,2.90
2023-02-25T14:44:56.930Z,3.70
2023-02-25T14:47:30.615Z,2.58
2023-02-25T14:49:57.796Z,3.03
2023-02-25T14:52:24.909Z,2.47
2023-02-25T14:54:52.031Z,2.83
2023-02-25T14:57:37.929Z,2.00
2023-02-25T15:00:09.620Z,2.30
2023-02-25T15:02:55.272Z,2.55
2023-02-25T15:05:32.557Z,3.58
2023-02-25T15:08:10.169Z,3.97
2023-02-25T15:10:52.125Z,2.78
2023-02-25T15:13:31.137Z,2.90
2023-02-25T15:16:20.065Z,2.50
2023-02-25T15:22:30.273Z,2.55
2023-02-25T15:25:15.978Z,3.15
2023-02-25T15:27:46.089Z,2.17
2023-02-25T15:30:13.686Z,2.17
2023-02-25T15:32:51.009Z,2.38
2023-02-25T15:35:38.126Z,1.90
2023-02-25T15:38:09.541Z,2.22
2023-02-25T15:44:09.177Z,2.92
2023-02-25T15:46:37.191Z,2.85
2023-02-25T15:49:26.938Z,3.35
2023-02-25T15:51:55.432Z,3.50
2023-02-25T15:54:29.265Z,4.70
2023-02-25T15:57:01.765Z,3.88
2023-02-25T15:59:50.273Z,4.32
2023-02-25T16:02:41.517Z,4.68
2023-02-25T16:05:11.473Z,5.43
2023-02-25T16:07:42.127Z,5.20
2023-02-25T16:12:38.991Z,6.03
2023-02-25T16:15:10.977Z,4.85
2023-02-25T16:17:38.578Z,5.57
2023-02-25T16:20:20.425Z,4.88
2023-02-25T16:22:48.641Z,4.88
2023-02-25T16:25:19.598Z,4.55
2023-02-25T16:28:05.732Z,5.22
2023-02-25T16:30:41.541Z,4.85
2023-02-25T16:33:31.317Z,5.03
2023-02-25T16:36:08.079Z,4.63
2023-02-25T16:38:43.351Z,5.20
2023-02-25T16:41:12.190Z,5.10
2023-02-25T16:43:40.323Z,5.30
2023-02-25T16:46:10.143Z,5.00
2023-02-25T16:48:38.825Z,4.93
2023-02-25T16:51:13.494Z,6.03
2023-02-25T16:53:45.883Z,6.47
2023-02-25T16:56:23.438Z,6.70
2023-02-25T16:59:21.013Z,6.68
2023-02-25T17:02:02.031Z,6.80
2023-02-25T17:04:36.411Z,5.60
2023-02-25T17:07:07.564Z,6.93
2023-02-25T17:09:35.299Z,5.50
2023-02-25T17:12:04.216Z,5.93
2023-02-25T17:14:33.152Z,5.43
2023-02-25T17:17:00.503Z,6.88
2023-02-25T17:19:27.778Z,5.88
2023-02-25T17:21:56.853Z,5.20
2023-02-25T17:24:26.942Z,6.35
2023-02-25T17:26:55.792Z,5.55
2023-02-25T17:29:23.096Z,6.10
2023-02-25T17:31:54.740Z,6.53
2023-02-25T17:34:35.237Z,6.30
2023-02-25T17:37:05.645Z,7.70
2023-02-25T17:39:37.704Z,6.88
2023-02-25T17:42:24.837Z,6.13
2023-02-25T17:44:51.989Z,5.68
2023-02-25T17:47:20.771Z,7.15
2023-02-25T17:49:50.848Z,7.60
2023-02-25T17:52:25.332Z,11.48
2023-02-25T17:55:01.376Z,14.52
2023-02-25T17:57:30.693Z,12.18
2023-02-25T18:00:14.243Z,13.98
2023-02-25T18:02:44.460Z,12.52
2023-02-25T18:05:24.417Z,12.68
2023-02-25T18:08:10.082Z,11.05
2023-02-25T18:10:37.227Z,10.13
2023-02-25T18:13:05.903Z,10.30
2023-02-25T18:15:34.104Z,10.98
2023-02-25T18:18:03.188Z,10.48
2023-02-25T18:20:31.864Z,29.85
2023-02-25T18:23:10.337Z,16.15
2023-02-25T18:25:39.673Z,13.88
2023-02-25T18:28:08.216Z,19.05
2023-02-25T18:30:36.102Z,93.20
2023-02-25T18:33:03.214Z,26.73
2023-02-25T18:35:33.764Z,80.00
2023-02-25T18:38:06.188Z,108.22
2023-02-25T18:40:39.779Z,14.63
2023-02-25T18:43:09.627Z,18.35
2023-02-25T18:45:36.779Z,116.07
2023-02-25T18:48:03.914Z,27.33
2023-02-25T18:50:31.863Z,17.17
2023-02-25T18:52:59.468Z,10.90
2023-02-25T18:55:27.890Z,12.63
2023-02-25T18:57:55.179Z,7.65
2023-02-25T19:00:23.730Z,7.25
2023-02-25T19:02:52.501Z,7.55
2023-02-25T19:05:20.715Z,7.90
2023-02-25T19:07:48.058Z,7.50
2023-02-25T19:10:19.420Z,7.68
2023-02-25T19:12:51.430Z,8.00
2023-02-25T19:15:20.634Z,8.38
2023-02-25T19:17:48.602Z,9.32
2023-02-25T19:20:16.285Z,9.32
2023-02-25T19:22:44.237Z,8.50
2023-02-25T19:25:17.616Z,9.75
2023-02-25T19:27:44.757Z,9.50
2023-02-25T19:30:14.436Z,10.30
2023-02-25T19:32:41.616Z,11.73
2023-02-25T19:35:09.161Z,10.77
2023-02-25T19:37:40.721Z,10.85
2023-02-25T19:40:16.730Z,10.38
2023-02-25T19:42:44.695Z,9.73
2023-02-25T19:45:15.547Z,8.23
2023-02-25T19:47:44.666Z,12.63
2023-02-25T19:50:12.173Z,10.38
2023-02-25T19:52:39.958Z,8.10
2023-02-25T19:55:11.289Z,10.18
2023-02-25T19:57:40.055Z,9.52
2023-02-25T20:00:09.989Z,10.45
2023-02-25T20:02:37.343Z,9.68
2023-02-25T20:05:05.921Z,9.80
2023-02-25T20:07:33.702Z,8.52
2023-02-25T20:10:03.415Z,9.80
2023-02-25T20:12:30.534Z,8.03
2023-02-25T20:14:57.699Z,8.18
2023-02-25T20:17:26.169Z,10.63
2023-02-25T20:19:55.735Z,10.18
2023-02-25T20:22:23.925Z,10.25
2023-02-25T20:24:51.684Z,8.93
2023-02-25T20:27:18.882Z,11.02
2023-02-25T20:29:47.733Z,10.18
2023-02-25T20:32:17.648Z,10.88
2023-02-25T20:34:44.989Z,9.52
2023-02-25T20:37:24.403Z,9.07
2023-02-25T20:39:57.034Z,9.60
2023-02-25T20:42:29.387Z,9.25
2023-02-25T20:44:57.445Z,10.45
2023-02-25T20:47:27.012Z,10.50
2023-02-25T20:50:13.836Z,10.90
2023-02-25T20:52:53.003Z,11.63
2023-02-25T20:55:20.256Z,9.98
2023-02-25T20:57:47.377Z,10.07
2023-02-25T21:00:16.607Z,8.63
2023-02-25T21:02:45.087Z,8.55
2023-02-25T21:05:12.257Z,8.80
2023-02-25T21:07:39.453Z,7.53
2023-02-25T21:10:07.053Z,8.68
2023-02-25T21:12:34.903Z,8.35
2023-02-25T21:15:03.994Z,8.25
2023-02-25T21:17:31.525Z,7.90
2023-02-25T21:19:58.706Z,8.85
2023-02-25T21:22:25.939Z,7.80
2023-02-25T21:24:53.112Z,8.20
2023-02-25T21:27:23.852Z,8.48
2023-02-25T21:29:51.276Z,7.72
2023-02-25T21:32:18.483Z,8.95
2023-02-25T21:34:45.734Z,10.30
2023-02-25T21:37:12.908Z,9.60
2023-02-25T21:39:43.240Z,9.95
2023-02-25T21:42:10.617Z,8.73
2023-02-25T21:44:37.860Z,10.10
2023-02-25T21:47:04.978Z,9.00
2023-02-25T21:49:36.395Z,10.27
2023-02-25T21:52:04.480Z,9.57
2023-02-25T21:54:33.454Z,10.40
2023-02-25T21:57:00.935Z,9.75
2023-02-25T21:59:28.070Z,12.20
2023-02-25T22:01:56.515Z,9.60
2023-02-25T22:04:23.684Z,13.93
2023-02-25T22:06:51.627Z,11.70
2023-02-25T22:09:20.205Z,6.95
2023-02-25T22:11:47.394Z,9.35
2023-02-25T22:14:14.918Z,7.25
2023-02-25T22:16:49.424Z,6.85
2023-02-25T22:19:16.739Z,9.65
2023-02-25T22:21:44.468Z,9.23
2023-02-25T22:24:13.839Z,8.23
2023-02-25T22:26:41.059Z,6.90
2023-02-25T22:29:09.151Z,6.80
2023-02-25T22:31:36.885Z,7.20
2023-02-25T22:34:05.459Z,7.63
2023-02-25T22:36:32.918Z,5.72
2023-02-25T22:39:02.033Z,7.43
2023-02-25T22:41:32.191Z,7.35
2023-02-25T22:44:02.076Z,8.80
2023-02-25T22:46:30.422Z,9.13
2023-02-25T22:48:57.865Z,7.50
2023-02-25T22:51:33.333Z,6.30
2023-02-25T22:54:00.778Z,6.03
2023-02-25T22:56:30.273Z,6.50
2023-02-25T22:58:57.565Z,6.15
2023-02-25T23:01:25.790Z,6.13
2023-02-25T23:03:53.541Z,5.78
2023-02-25T23:06:24.961Z,5.35
2023-02-25T23:08:56.050Z,6.53
2023-02-25T23:11:27.449Z,5.15
2023-02-25T23:13:58.387Z,5.10
2023-02-25T23:16:28.681Z,5.60
2023-02-25T23:18:59.855Z,5.85
2023-02-25T23:21:29.623Z,5.43
2023-02-25T23:23:59.519Z,5.37
2023-02-25T23:26:28.136Z,6.00
2023-02-25T23:28:56.378Z,8.52
2023-02-25T23:31:25.347Z,7.53
2023-02-25T23:33:58.870Z,7.82
2023-02-25T23:36:27.199Z,8.15
2023-02-25T23:38:55.553Z,7.10
2023-02-25T23:41:22.936Z,7.03
2023-02-25T23:43:57.724Z,7.15
2023-02-25T23:46:26.613Z,5.43
2023-02-25T23:48:58.099Z,5.30
2023-02-25T23:51:25.628Z,5.75
2023-02-25T23:53:55.545Z,5.28
2023-02-25T23:56:23.804Z,5.13
2023-02-25T23:58:51.720Z,5.20
